Time;durP1;ratioP1;P1;durP2;ratioP2;P2;SDS_P1;SDS_P2;PMS_P1;PMS_P2;Temp;Humidity;BMP_temperature;BMP_pressure;BME280_temperature;BME280_humidity;BME280_pressure;Samples;Min_cycle;Max_cycle;Signal;HPM_P1;HPM_P2
2023/04/16 00:00:36;;;;;;;8.73;3.17;;;;;;;7.39;100.00;102020.13;4974688;28;20540;-69
2023/04/16 00:03:01;;;;;;;12.05;3.90;;;;;;;7.38;100.00;102013.16;4958534;28;20089;-69
2023/04/16 00:05:26;;;;;;;5.63;2.42;;;;;;;7.38;100.00;102011.50;4975286;28;20109;-69
2023/04/16 00:07:51;;;;;;;10.30;3.28;;;;;;;7.37;100.00;102006.22;4959158;28;20377;-69
2023/04/16 00:10:17;;;;;;;7.97;3.03;;;;;;;7.38;100.00;102013.16;4965406;28;20129;-69
2023/04/16 00:12:42;;;;;;;8.57;3.10;;;;;;;7.37;100.00;102006.22;4954504;28;20457;-69
2023/04/16 00:15:08;;;;;;;7.22;2.95;;;;;;;7.38;100.00;102011.50;4951915;28;20086;-69
2023/04/16 00:17:33;;;;;;;10.13;3.88;;;;;;;7.39;100.00;102018.44;4963656;28;20027;-69
2023/04/16 00:19:58;;;;;;;7.97;3.00;;;;;;;7.37;100.00;102016.56;4950603;28;20023;-69
2023/04/16 00:22:24;;;;;;;9.23;3.40;;;;;;;7.37;100.00;102013.97;4950992;28;20771;-69
2023/04/16 00:24:49;;;;;;;12.40;3.80;;;;;;;7.36;100.00;102010.50;4957280;28;20027;-69
2023/04/16 00:27:15;;;;;;;5.25;2.75;;;;;;;7.35;100.00;102008.72;4969787;28;20046;-70
2023/04/16 00:29:40;;;;;;;9.80;3.10;;;;;;;7.35;100.00;102010.41;4950291;28;20024;-69
2023/04/16 00:32:06;;;;;;;6.13;3.00;;;;;;;7.35;100.00;102013.88;4950408;28;20015;-71
2023/04/16 00:34:31;;;;;;;6.22;3.03;;;;;;;7.32;100.00;102009.41;4950990;28;20019;-70
2023/04/16 00:36:57;;;;;;;7.07;3.38;;;;;;;7.32;100.00;102014.56;4965414;28;20034;-70
2023/04/16 00:39:22;;;;;;;7.63;3.55;;;;;;;7.32;100.00;102011.09;4956670;28;20026;-69
2023/04/16 00:41:48;;;;;;;8.98;3.70;;;;;;;7.33;100.00;102015.47;4974631;28;20033;-70
2023/04/16 00:44:13;;;;;;;8.68;3.83;;;;;;;7.32;100.00;102009.41;4953248;28;20694;-69
2023/04/16 00:46:40;;;;;;;7.45;2.63;;;;;;;7.33;100.00;102010.31;4959462;28;20026;-69
2023/04/16 00:49:06;;;;;;;8.95;3.38;;;;;;;7.34;100.00;102009.50;4982237;28;20513;-69
2023/04/16 00:51:31;;;;;;;14.95;3.88;;;;;;;7.34;100.00;102006.91;4987005;28;20053;-69
2023/04/16 00:53:57;;;;;;;6.15;3.42;;;;;;;7.33;100.00;102006.03;4960910;28;20538;-69
2023/04/16 00:56:23;;;;;;;8.95;3.35;;;;;;;7.34;100.00;102006.91;4954334;28;20027;-69
2023/04/16 00:58:49;;;;;;;8.80;4.00;;;;;;;7.33;100.00;102006.03;4953567;28;20086;-69
2023/04/16 01:01:14;;;;;;;8.30;4.07;;;;;;;7.35;100.00;102003.56;4978877;28;20388;-70
2023/04/16 01:03:44;;;;;;;13.70;4.47;;;;;;;7.35;100.00;102008.72;4954405;28;20105;-69
2023/04/16 01:06:10;;;;;;;8.65;4.72;;;;;;;7.36;100.00;102005.34;4955784;28;20430;-69
2023/04/16 01:08:36;;;;;;;11.70;4.53;;;;;;;7.35;100.00;102007.81;4959159;28;20023;-69
2023/04/16 01:11:02;;;;;;;9.32;4.57;;;;;;;7.35;100.00;102008.72;4968512;28;20487;-70
2023/04/16 01:13:27;;;;;;;10.80;4.70;;;;;;;7.34;100.00;101999.19;4960277;28;20015;-69
2023/04/16 01:15:52;;;;;;;8.73;4.82;;;;;;;7.35;100.00;102006.13;4974775;28;20145;-69
2023/04/16 01:18:20;;;;;;;9.88;5.07;;;;;;;7.35;100.00;101998.41;4969391;28;20046;-70
2023/04/16 01:20:46;;;;;;;7.30;4.25;;;;;;;7.34;100.00;102004.34;4958056;28;20534;-70
2023/04/16 01:23:12;;;;;;;8.52;4.85;;;;;;;7.31;100.00;102002.47;4954300;28;20098;-69
2023/04/16 01:25:38;;;;;;;8.40;5.10;;;;;;;7.33;100.00;102002.56;4956035;28;20106;-70
2023/04/16 01:28:04;;;;;;;9.80;5.10;;;;;;;7.34;100.00;102001.75;4969959;28;20449;-69
2023/04/16 01:30:29;;;;;;;9.70;5.13;;;;;;;7.35;100.00;102008.72;4958695;28;20031;-69
2023/04/16 01:32:56;;;;;;;8.00;4.70;;;;;;;7.35;100.00;102002.66;4986837;28;20026;-69
2023/04/16 01:35:22;;;;;;;9.15;4.32;;;;;;;7.35;100.00;102008.72;4962185;28;20023;-70
2023/04/16 01:37:49;;;;;;;11.27;5.03;;;;;;;7.36;100.00;102010.50;4952778;28;20027;-69
2023/04/16 01:40:14;;;;;;;8.82;4.88;;;;;;;7.36;100.00;102015.66;4952034;28;20102;-69
2023/04/16 01:42:39;;;;;;;9.05;5.10;;;;;;;7.36;100.00;102012.19;4954495;28;20109;-73
2023/04/16 01:45:05;;;;;;;8.48;5.05;;;;;;;7.35;100.00;102011.28;4952027;28;20110;-72
2023/04/16 01:47:31;;;;;;;10.68;4.55;;;;;;;7.36;100.00;102015.66;4960358;28;20027;-72
2023/04/16 01:49:56;;;;;;;10.65;5.18;;;;;;;7.37;100.00;102016.56;4953245;28;20480;-72
2023/04/16 01:52:21;;;;;;;10.00;4.85;;;;;;;7.38;100.00;102013.16;4957837;28;20399;-71
2023/04/16 01:54:47;;;;;;;7.38;4.53;;;;;;;7.38;100.00;102014.06;4959171;28;20027;-72
2023/04/16 01:57:12;;;;;;;9.85;4.75;;;;;;;7.40;100.00;102007.31;4963548;28;20018;-72
2023/04/16 01:59:37;;;;;;;9.48;4.40;;;;;;;7.40;100.00;102006.41;4973079;28;20030;-72
2023/04/16 02:02:09;;;;;;;9.75;4.80;;;;;;;7.40;100.00;102009.91;4973774;28;20035;-70
2023/04/16 02:04:37;;;;;;;9.30;4.47;;;;;;;7.39;100.00;102010.72;4972488;28;20042;-69
2023/04/16 02:07:02;;;;;;;9.75;4.72;;;;;;;7.40;100.00;102015.06;4967044;28;20031;-70
2023/04/16 02:09:28;;;;;;;7.30;4.05;;;;;;;7.41;100.00;102016.84;4972759;28;20033;-69
2023/04/16 02:11:53;;;;;;;6.72;4.13;;;;;;;7.41;100.00;102013.38;4967359;28;20078;-69
2023/04/16 02:14:18;;;;;;;7.97;4.72;;;;;;;7.40;100.00;102006.41;4983091;28;20503;-70
2023/04/16 02:16:43;;;;;;;10.25;4.20;;;;;;;7.40;100.00;102007.31;4970434;28;20019;-69
2023/04/16 02:19:09;;;;;;;6.80;4.47;;;;;;;7.40;100.00;102007.31;4989752;28;20014;-69
2023/04/16 02:21:34;;;;;;;7.07;4.07;;;;;;;7.39;100.00;102000.41;4983244;28;20029;-68
2023/04/16 02:24:00;;;;;;;8.93;4.75;;;;;;;7.40;100.00;102001.25;4954285;28;20098;-68
2023/04/16 02:26:25;;;;;;;8.82;4.30;;;;;;;7.39;100.00;102000.41;4954778;28;20439;-70
2023/04/16 02:28:50;;;;;;;6.55;4.43;;;;;;;7.41;100.00;102008.22;4967422;28;20046;-69
2023/04/16 02:31:18;;;;;;;8.20;4.05;;;;;;;7.41;100.00;102006.50;4967279;28;20030;-70
2023/04/16 02:33:43;;;;;;;8.13;3.72;;;;;;;7.42;100.00;102010.91;4960191;28;20568;-69
2023/04/16 02:36:10;;;;;;;7.38;3.97;;;;;;;7.44;100.00;102016.16;4956823;28;20038;-69
2023/04/16 02:38:36;;;;;;;11.10;4.07;;;;;;;7.42;100.00;102010.00;4970303;28;20026;-69
2023/04/16 02:41:01;;;;;;;6.43;3.60;;;;;;;7.42;100.00;102005.75;4969347;28;20534;-69
2023/04/16 02:43:27;;;;;;;11.43;4.57;;;;;;;7.42;100.00;102005.75;4961646;28;20023;-69
2023/04/16 02:45:52;;;;;;;9.13;4.45;;;;;;;7.43;100.00;102011.75;4963482;28;20035;-68
2023/04/16 02:48:17;;;;;;;7.90;4.00;;;;;;;7.43;100.00;102017.81;4972511;28;20081;-68
2023/04/16 02:50:42;;;;;;;7.45;3.83;;;;;;;7.44;100.00;102014.47;4971260;28;20130;-69
2023/04/16 02:53:09;;;;;;;7.20;3.58;;;;;;;7.44;100.00;102013.56;4967060;28;20097;-69
2023/04/16 02:55:34;;;;;;;7.70;4.07;;;;;;;7.45;100.00;102021.41;4973326;28;20027;-68
2023/04/16 02:58:00;;;;;;;8.43;3.75;;;;;;;7.45;100.00;102021.41;4970682;28;20318;-68
2023/04/16 03:00:25;;;;;;;8.45;4.22;;;;;;;7.47;100.00;102028.34;4982568;28;20080;-69
2023/04/16 03:02:50;;;;;;;8.75;4.32;;;;;;;7.45;100.00;102026.56;4981914;28;20028;-69
2023/04/16 03:05:16;;;;;;;10.63;3.88;;;;;;;7.48;100.00;102027.56;4985420;28;20029;-69
2023/04/16 03:07:42;;;;;;;8.43;3.75;;;;;;;7.45;100.00;102021.41;4978059;28;20019;-69
2023/04/16 03:10:08;;;;;;;5.75;3.30;;;;;;;7.45;100.00;102018.81;4976267;28;20030;-69
2023/04/16 03:12:33;;;;;;;6.93;3.78;;;;;;;7.46;100.00;102030.03;4975356;28;20033;-69
2023/04/16 03:14:59;;;;;;;9.93;4.50;;;;;;;7.45;100.00;102025.66;4979996;28;20039;-70
2023/04/16 03:17:24;;;;;;;7.57;4.00;;;;;;;7.47;100.00;102025.75;4974097;28;20113;-69
2023/04/16 03:19:51;;;;;;;8.23;5.25;;;;;;;7.47;100.00;102033.50;4960139;28;20146;-68
2023/04/16 03:22:16;;;;;;;7.63;4.88;;;;;;;7.45;100.00;102036.88;4973002;28;20101;-68
2023/04/16 03:24:41;;;;;;;12.93;5.82;;;;;;;7.44;100.00;102035.09;4974388;28;20035;-69
2023/04/16 03:27:07;;;;;;;6.63;4.82;;;;;;;7.43;100.00;102033.31;4953978;28;20031;-69
2023/04/16 03:29:32;;;;;;;9.38;5.43;;;;;;;7.41;100.00;102039.19;4962762;28;20373;-69
2023/04/16 03:31:57;;;;;;;6.95;5.60;;;;;;;7.41;100.00;102037.47;4954728;28;20046;-68
2023/04/16 03:34:23;;;;;;;9.90;5.68;;;;;;;7.41;100.00;102040.03;4952970;28;20511;-69
2023/04/16 03:36:48;;;;;;;9.82;6.05;;;;;;;7.41;100.00;102040.03;4957147;28;20037;-69
2023/04/16 03:39:13;;;;;;;12.23;6.65;;;;;;;7.42;100.00;102035.78;4955761;28;20704;-69
2023/04/16 03:41:39;;;;;;;12.77;7.18;;;;;;;7.40;100.00;102040.84;4957119;28;20089;-69
2023/04/16 03:44:04;;;;;;;12.23;6.55;;;;;;;7.39;100.00;102041.66;4975455;28;20137;-69
2023/04/16 03:46:29;;;;;;;13.82;7.97;;;;;;;7.38;100.00;102034.69;4971411;28;20052;-68
2023/04/16 03:48:54;;;;;;;11.55;8.25;;;;;;;7.38;100.00;102033.78;4959478;28;20027;-69
2023/04/16 03:51:20;;;;;;;12.05;8.27;;;;;;;7.38;100.00;102038.94;4986991;28;20471;-69
2023/04/16 03:53:45;;;;;;;12.68;7.20;;;;;;;7.37;100.00;102035.50;4988810;28;20117;-69
2023/04/16 03:56:10;;;;;;;11.63;8.57;;;;;;;7.38;100.00;102034.69;4982473;28;20031;-69
2023/04/16 03:58:36;;;;;;;12.23;8.13;;;;;;;7.36;100.00;102028.53;4974514;28;20490;-68
2023/04/16 04:01:01;;;;;;;13.45;7.85;;;;;;;7.37;100.00;102037.19;4987694;28;20041;-69
2023/04/16 04:03:26;;;;;;;11.05;8.73;;;;;;;7.37;100.00;102037.19;4951954;28;20559;-70
2023/04/16 04:05:51;;;;;;;12.43;8.23;;;;;;;7.38;100.00;102038.94;4975638;28;20049;-69
2023/04/16 04:08:17;;;;;;;12.13;8.73;;;;;;;7.37;100.00;102035.50;4978015;28;20368;-69
2023/04/16 04:10:42;;;;;;;13.70;8.90;;;;;;;7.38;100.00;102038.94;4986687;28;20040;-69
2023/04/16 04:13:07;;;;;;;16.60;8.93;;;;;;;7.37;100.00;102040.66;4976324;28;20673;-68
2023/04/16 04:15:33;;;;;;;12.02;9.35;;;;;;;7.38;100.00;102038.94;4984036;28;20491;-68
2023/04/16 04:17:58;;;;;;;11.68;8.82;;;;;;;7.39;100.00;102035.59;4964735;28;20086;-70
2023/04/16 04:20:24;;;;;;;11.95;9.60;;;;;;;7.40;100.00;102037.38;4975182;28;20551;-69
2023/04/16 04:22:49;;;;;;;13.27;9.82;;;;;;;7.40;100.00;102043.44;4980954;28;20027;-69
2023/04/16 04:25:16;;;;;;;11.57;8.95;;;;;;;7.39;100.00;102039.09;4981602;28;20105;-68
2023/04/16 04:27:41;;;;;;;15.02;10.13;;;;;;;7.40;100.00;102039.94;4975817;28;20085;-69
2023/04/16 04:30:07;;;;;;;10.25;8.23;;;;;;;7.39;100.00;102046.81;4989146;28;20030;-69
2023/04/16 04:32:33;;;;;;;13.50;9.63;;;;;;;7.40;100.00;102046.00;4986754;28;20042;-69
2023/04/16 04:35:02;;;;;;;13.93;9.27;;;;;;;7.41;100.00;102050.34;4988454;28;20101;-69
2023/04/16 04:37:27;;;;;;;12.75;10.02;;;;;;;7.41;100.00;102049.50;4986823;28;20041;-68
2023/04/16 04:39:52;;;;;;;11.20;8.82;;;;;;;7.41;100.00;102052.94;4976012;28;20039;-69
2023/04/16 04:42:19;;;;;;;15.40;9.23;;;;;;;7.41;100.00;102060.69;4972967;28;20396;-69
2023/04/16 04:44:45;;;;;;;13.98;8.85;;;;;;;7.41;100.00;102052.94;4959132;28;20121;-70
2023/04/16 04:47:10;;;;;;;15.65;9.20;;;;;;;7.42;100.00;102056.41;4970498;28;20035;-69
2023/04/16 04:49:36;;;;;;;13.20;8.93;;;;;;;7.41;100.00;102059.81;4981021;28;20034;-69
2023/04/16 04:52:01;;;;;;;13.13;8.75;;;;;;;7.41;100.00;102055.53;4968067;28;20226;-69
2023/04/16 04:54:30;;;;;;;12.23;7.72;;;;;;;7.42;100.00;102061.56;4979952;28;20490;-69
2023/04/16 04:56:55;;;;;;;11.10;8.18;;;;;;;7.42;100.00;102059.00;4984881;28;20111;-69
2023/04/16 04:59:21;;;;;;;12.13;9.07;;;;;;;7.41;100.00;102060.69;4983492;28;20066;-68
2023/04/16 05:01:47;;;;;;;13.50;8.77;;;;;;;7.41;100.00;102064.97;4984422;28;20037;-69
2023/04/16 05:04:12;;;;;;;17.13;9.50;;;;;;;7.39;100.00;102062.28;4977633;28;20117;-68
2023/04/16 05:06:37;;;;;;;13.13;8.95;;;;;;;7.39;100.00;102062.28;4949365;28;20100;-69
2023/04/16 05:09:03;;;;;;;13.88;9.07;;;;;;;7.40;100.00;102068.31;4950683;28;20027;-69
2023/04/16 05:11:28;;;;;;;15.90;9.48;;;;;;;7.40;100.00;102061.47;4948092;28;20072;-70
2023/04/16 05:13:54;;;;;;;14.75;9.13;;;;;;;7.42;100.00;102066.75;4951150;28;20562;-69
2023/04/16 05:16:19;;;;;;;11.95;8.20;;;;;;;7.42;100.00;102067.63;4955531;28;20027;-69
2023/04/16 05:18:44;;;;;;;11.25;9.10;;;;;;;7.43;100.00;102072.00;4956722;28;20395;-69
2023/04/16 05:21:10;;;;;;;15.32;9.63;;;;;;;7.43;100.00;102072.00;4961001;28;20087;-68
2023/04/16 05:23:35;;;;;;;10.48;8.50;;;;;;;7.44;100.00;102076.38;4985988;28;20109;-68
2023/04/16 05:26:00;;;;;;;12.75;8.52;;;;;;;7.42;100.00;102070.22;4986645;28;20383;-69
2023/04/16 05:28:26;;;;;;;14.07;8.65;;;;;;;7.43;100.00;102076.25;4986942;28;20026;-69
2023/04/16 05:30:51;;;;;;;15.35;9.55;;;;;;;7.45;100.00;102074.66;4986135;28;20033;-69
2023/04/16 05:33:16;;;;;;;13.50;9.23;;;;;;;7.45;100.00;102077.25;4969111;28;20027;-68
2023/04/16 05:35:41;;;;;;;12.90;9.38;;;;;;;7.45;100.00;102080.72;4949792;28;20530;-69
2023/04/16 05:38:07;;;;;;;13.70;9.57;;;;;;;7.47;100.00;102082.50;4953206;28;20034;-69
2023/04/16 05:40:32;;;;;;;11.10;8.68;;;;;;;7.45;100.00;102083.31;4972863;28;20092;-68
2023/04/16 05:42:57;;;;;;;11.57;8.70;;;;;;;7.44;100.00;102089.28;4968118;28;20262;-69
2023/04/16 05:45:23;;;;;;;12.20;8.93;;;;;;;7.44;100.00;102090.94;4965620;28;20454;-68
2023/04/16 05:47:48;;;;;;;13.38;9.65;;;;;;;7.43;100.00;102092.63;4964417;28;20049;-70
2023/04/16 05:50:14;;;;;;;17.15;9.80;;;;;;;7.43;100.00;102095.19;4980233;28;20033;-69
2023/04/16 05:52:39;;;;;;;18.77;11.05;;;;;;;7.43;100.00;102094.31;4964658;28;20030;-70
2023/04/16 05:55:06;;;;;;;14.27;9.55;;;;;;;7.44;100.00;102094.44;4973578;28;20501;-69
2023/04/16 05:57:32;;;;;;;15.95;9.65;;;;;;;7.44;100.00;102103.84;4970263;28;20120;-69
2023/04/16 05:59:57;;;;;;;15.40;10.43;;;;;;;7.45;100.00;102101.34;4971237;28;20038;-69
2023/04/16 06:02:22;;;;;;;19.77;9.80;;;;;;;7.46;100.00;102099.69;4965256;28;20043;-69
2023/04/16 06:04:48;;;;;;;15.68;10.20;;;;;;;7.45;100.00;102101.34;4976750;28;20073;-69
2023/04/16 06:07:14;;;;;;;15.90;12.50;;;;;;;7.46;100.00;102104.84;4967270;28;20063;-69
2023/04/16 06:09:39;;;;;;;16.92;10.70;;;;;;;7.44;100.00;102102.16;4973519;28;20031;-68
2023/04/16 06:12:04;;;;;;;16.25;10.77;;;;;;;7.46;100.00;102104.84;4978243;28;20037;-69
2023/04/16 06:14:30;;;;;;;19.35;12.07;;;;;;;7.45;100.00;102103.94;4970981;28;20062;-68
2023/04/16 06:16:55;;;;;;;18.70;11.43;;;;;;;7.47;100.00;102105.72;4961211;28;20531;-68
2023/04/16 06:19:20;;;;;;;19.30;11.13;;;;;;;7.46;100.00;102104.84;4958003;28;20019;-68
2023/04/16 06:21:45;;;;;;;20.10;11.82;;;;;;;7.48;100.00;102103.25;4964488;28;20476;-69
2023/04/16 06:24:12;;;;;;;17.08;11.02;;;;;;;7.47;100.00;102109.19;4968414;28;20027;-69
2023/04/16 06:26:37;;;;;;;20.38;11.50;;;;;;;7.48;100.00;102113.56;4982482;28;20471;-70
2023/04/16 06:29:02;;;;;;;16.73;11.15;;;;;;;7.48;100.00;102108.41;4964706;28;20442;-68
2023/04/16 06:31:29;;;;;;;16.50;11.52;;;;;;;7.50;100.00;102113.69;4973731;28;20026;-69
2023/04/16 06:33:54;;;;;;;19.10;11.02;;;;;;;7.50;100.00;102117.13;4963495;28;20035;-67
2023/04/16 06:36:19;;;;;;;17.02;11.32;;;;;;;7.50;100.00;102111.09;4975410;28;20408;-68
2023/04/16 06:38:45;;;;;;;20.15;11.73;;;;;;;7.50;100.00;102124.00;4965312;28;20459;-68
2023/04/16 06:41:10;;;;;;;17.90;11.27;;;;;;;7.50;100.00;102126.56;4975340;28;20023;-68
2023/04/16 06:43:36;;;;;;;17.02;12.02;;;;;;;7.52;100.00;102132.72;4967335;28;20026;-68
2023/04/16 06:46:01;;;;;;;14.85;11.63;;;;;;;7.52;100.00;102130.16;4965432;28;20035;-68
2023/04/16 06:48:26;;;;;;;27.40;12.63;;;;;;;7.52;100.00;102131.03;4969345;28;20052;-68
2023/04/16 06:50:52;;;;;;;20.20;11.85;;;;;;;7.53;100.00;102132.81;4971235;28;20430;-67
2023/04/16 06:53:17;;;;;;;19.98;12.13;;;;;;;7.54;100.00;102134.59;4967337;28;20359;-67
2023/04/16 06:55:42;;;;;;;22.27;12.60;;;;;;;7.54;100.00;102141.44;4970785;28;20736;-68
2023/04/16 06:58:08;;;;;;;21.77;12.68;;;;;;;7.55;100.00;102145.81;4952665;28;20242;-68
2023/04/16 07:00:33;;;;;;;21.67;12.27;;;;;;;7.56;100.00;102145.00;4967044;28;20021;-68
2023/04/16 07:03:00;;;;;;;18.95;12.05;;;;;;;7.56;100.00;102147.59;4964110;28;20432;-68
2023/04/16 07:05:25;;;;;;;20.17;12.45;;;;;;;7.56;100.00;102152.75;4975585;28;20596;-69
2023/04/16 07:07:51;;;;;;;21.77;12.45;;;;;;;7.57;100.00;102159.72;4962225;28;20042;-68
2023/04/16 07:10:16;;;;;;;23.27;12.57;;;;;;;7.58;100.00;102158.91;4961929;28;20069;-68
2023/04/16 07:12:41;;;;;;;21.33;12.85;;;;;;;7.57;100.00;102155.44;4954136;28;20035;-68
2023/04/16 07:15:07;;;;;;;21.88;12.80;;;;;;;7.59;100.00;102158.09;4966749;28;20073;-69
2023/04/16 07:17:33;;;;;;;21.27;12.80;;;;;;;7.61;100.00;102161.69;4959593;28;20031;-68
2023/04/16 07:19:58;;;;;;;24.98;13.93;;;;;;;7.62;100.00;102163.50;4957097;28;20262;-68
2023/04/16 07:22:23;;;;;;;23.45;13.40;;;;;;;7.63;100.00;102165.25;4960766;28;20065;-68
2023/04/16 07:24:48;;;;;;;25.45;15.40;;;;;;;7.63;100.00;102162.69;4957253;28;20434;-68
2023/04/16 07:27:14;;;;;;;24.80;14.10;;;;;;;7.65;100.00;102168.84;4962268;28;20033;-67
2023/04/16 07:29:39;;;;;;;25.45;14.73;;;;;;;7.66;100.00;102165.44;4966865;28;20046;-68
2023/04/16 07:32:05;;;;;;;24.35;13.65;;;;;;;7.67;100.00;102177.59;4959101;28;20480;-68
2023/04/16 07:34:30;;;;;;;24.80;14.02;;;;;;;7.67;100.00;102172.41;4954205;28;20117;-67
2023/04/16 07:36:55;;;;;;;25.35;13.88;;;;;;;7.70;100.00;102176.88;4955402;28;20110;-68
2023/04/16 07:39:20;;;;;;;26.67;13.60;;;;;;;7.71;100.00;102170.03;4975868;28;20368;-67
2023/04/16 07:41:46;;;;;;;24.10;13.75;;;;;;;7.72;100.00;102184.75;4950050;28;20117;-69
2023/04/16 07:44:11;;;;;;;23.27;13.80;;;;;;;7.73;100.00;102178.78;4965202;28;20029;-68
2023/04/16 07:46:36;;;;;;;23.42;14.38;;;;;;;7.73;100.00;102181.34;4962359;28;20030;-68
2023/04/16 07:49:02;;;;;;;26.40;15.02;;;;;;;7.74;100.00;102178.88;4957965;28;20038;-67
2023/04/16 07:51:27;;;;;;;26.00;14.65;;;;;;;7.76;100.00;102186.72;4963274;28;20113;-67
2023/04/16 07:53:52;;;;;;;23.17;14.52;;;;;;;7.75;100.00;102196.16;4965864;28;20510;-69
2023/04/16 07:56:17;;;;;;;21.95;15.00;;;;;;;7.77;100.00;102196.25;4958654;28;20042;-68
2023/04/16 07:58:43;;;;;;;28.55;15.48;;;;;;;7.77;100.00;102194.53;4963979;28;20041;-68
2023/04/16 08:01:08;;;;;;;24.48;14.90;;;;;;;7.79;100.00;102199.81;4981205;28;20444;-68
2023/04/16 08:03:33;;;;;;;29.48;15.68;;;;;;;7.81;100.00;102205.97;4982695;28;20033;-67
2023/04/16 08:05:59;;;;;;;25.08;14.38;;;;;;;7.80;100.00;102201.59;4985263;28;20030;-68
2023/04/16 08:08:24;;;;;;;28.38;15.27;;;;;;;7.79;100.00;102199.81;4980997;28;20023;-68
2023/04/16 08:10:54;;;;;;;27.80;16.02;;;;;;;7.81;100.00;102211.13;4981257;28;20387;-68
2023/04/16 08:13:19;;;;;;;29.83;16.58;;;;;;;7.83;100.00;102209.53;4964596;28;20461;-68
2023/04/16 08:15:45;;;;;;;27.25;16.35;;;;;;;7.83;100.00;102212.13;4968690;28;20065;-69
2023/04/16 08:18:14;;;;;;;32.17;16.13;;;;;;;7.85;100.00;102217.38;4966061;28;20109;-68
2023/04/16 08:20:39;;;;;;;23.50;15.05;;;;;;;7.87;100.00;102214.13;4959823;28;20039;-68
2023/04/16 08:23:05;;;;;;;30.63;16.23;;;;;;;7.89;100.00;102227.13;4963707;28;20035;-68
2023/04/16 08:25:30;;;;;;;28.13;16.33;;;;;;;7.90;100.00;102232.38;4963969;28;20027;-68
2023/04/16 08:27:55;;;;;;;30.23;16.60;;;;;;;7.91;100.00;102220.38;4957769;28;20042;-68
2023/04/16 08:30:20;;;;;;;23.02;15.68;;;;;;;7.92;100.00;102228.22;4955675;28;20073;-67
2023/04/16 08:32:46;;;;;;;22.40;14.63;;;;;;;7.92;100.00;102228.22;4960962;28;20039;-68
2023/04/16 08:35:11;;;;;;;27.38;16.20;;;;;;;7.92;100.00;102228.22;4961611;28;20093;-68
2023/04/16 08:37:37;;;;;;;24.52;15.45;;;;;;;7.93;100.00;102234.28;4959402;28;20071;-68
2023/04/16 08:40:02;;;;;;;27.27;16.08;;;;;;;7.96;100.00;102225.81;4962475;28;20023;-68
2023/04/16 08:42:31;;;;;;;25.30;15.95;;;;;;;7.99;100.00;102231.19;4972515;28;20073;-68
2023/04/16 08:45:07;;;;;;;25.45;15.85;;;;;;;8.00;100.00;102236.47;4963368;28;20403;-68
2023/04/16 08:47:35;;;;;;;25.15;15.55;;;;;;;8.03;100.00;102239.25;4953430;28;20031;-69
2023/04/16 08:50:03;;;;;;;32.90;17.05;;;;;;;8.07;100.00;102232.59;4947634;28;20039;-69
2023/04/16 08:52:30;;;;;;;26.13;15.77;;;;;;;8.09;100.00;102240.44;4956856;28;20058;-69
2023/04/16 08:55:01;;;;;;;25.33;14.90;;;;;;;8.11;100.00;102241.44;4956206;28;20535;-68
2023/04/16 08:57:37;;;;;;;25.80;14.52;;;;;;;8.11;100.00;102247.47;4951167;28;20116;-68
2023/04/16 09:00:03;;;;;;;24.40;15.00;;;;;;;8.13;100.00;102245.00;4955996;28;20031;-69
2023/04/16 09:02:30;;;;;;;21.73;15.65;;;;;;;8.15;100.00;102241.72;4958711;28;20026;-69
2023/04/16 09:04:59;;;;;;;28.52;16.52;;;;;;;8.16;100.00;102251.28;4966510;28;20030;-68
2023/04/16 09:07:27;;;;;;;25.08;15.70;;;;;;;8.16;100.00;102251.28;4975046;28;20281;-69
2023/04/16 09:09:53;;;;;;;28.20;16.73;;;;;;;8.19;100.00;102247.97;4957955;28;20035;-69
2023/04/16 09:12:22;;;;;;;23.40;14.93;;;;;;;8.20;100.00;102251.47;4960451;28;20435;-68
2023/04/16 09:14:49;;;;;;;32.47;16.70;;;;;;;8.21;100.00;102251.56;4968742;28;20053;-68
2023/04/16 09:17:15;;;;;;;27.48;16.73;;;;;;;8.25;100.00;102255.22;4962831;28;20035;-69
2023/04/16 09:19:41;;;;;;;22.67;16.25;;;;;;;8.26;100.00;102251.84;4960765;28;20039;-69
2023/04/16 09:22:06;;;;;;;26.02;16.83;;;;;;;8.28;100.00;102255.41;4963752;28;20058;-69
2023/04/16 09:24:32;;;;;;;26.23;16.23;;;;;;;8.31;100.00;102257.31;4964733;28;20070;-69
2023/04/16 09:26:59;;;;;;;26.83;16.95;;;;;;;8.33;100.00;102264.34;4961211;28;20399;-68
2023/04/16 09:29:39;;;;;;;24.77;16.20;;;;;;;8.34;100.00;102261.00;4969933;28;20030;-69
2023/04/16 09:32:11;;;;;;;24.27;16.55;;;;;;;8.36;100.00;102264.56;4970507;28;20034;-69
2023/04/16 09:34:59;;;;;;;28.70;17.35;;;;;;;8.37;100.00;102276.69;4957670;28;20069;-68
2023/04/16 09:37:28;;;;;;;27.02;17.75;;;;;;;8.38;100.00;102273.28;4972699;28;20889;-69
2023/04/16 09:39:58;;;;;;;31.42;17.17;;;;;;;8.40;100.00;102279.44;4971642;28;20549;-69
2023/04/16 09:42:31;;;;;;;30.13;17.47;;;;;;;8.40;100.00;102276.88;4964523;28;20070;-68
2023/04/16 09:44:57;;;;;;;30.08;16.77;;;;;;;8.41;100.00;102280.34;4956550;28;20074;-69
2023/04/16 09:47:37;;;;;;;24.98;15.95;;;;;;;8.44;100.00;102282.25;4967855;28;20039;-68
2023/04/16 09:50:02;;;;;;;28.40;16.40;;;;;;;8.45;100.00;102287.50;4955864;28;20031;-68
2023/04/16 09:52:28;;;;;;;25.92;16.83;;;;;;;8.49;100.00;102286.03;4963777;28;20034;-69
2023/04/16 09:54:53;;;;;;;25.42;16.38;;;;;;;8.50;100.00;102282.63;4959604;28;20078;-68
2023/04/16 09:57:23;;;;;;;26.40;15.98;;;;;;;8.51;100.00;102286.97;4981698;28;20030;-69
2023/04/16 09:59:53;;;;;;;27.73;15.77;;;;;;;8.55;100.00;102290.66;4967430;28;20540;-69
2023/04/16 10:02:19;;;;;;;35.88;18.08;;;;;;;8.56;100.00;102288.22;4980300;28;20113;-68
2023/04/16 10:04:51;;;;;;;26.20;15.68;;;;;;;8.57;100.00;102287.44;4986477;28;20109;-69
2023/04/16 10:07:17;;;;;;;28.75;16.25;;;;;;;8.61;100.00;102285.94;4984513;28;20736;-68
2023/04/16 10:09:43;;;;;;;29.35;17.75;;;;;;;8.64;100.00;102292.19;4966804;28;20035;-68
2023/04/16 10:12:09;;;;;;;29.65;17.80;;;;;;;8.68;100.00;102289.78;4977248;28;20030;-68
2023/04/16 10:14:34;;;;;;;27.00;17.13;;;;;;;8.68;100.00;102288.09;4965202;28;20055;-68
2023/04/16 10:17:01;;;;;;;23.88;16.23;;;;;;;8.71;100.00;102284.81;4973618;28;20042;-67
2023/04/16 10:19:26;;;;;;;27.10;16.67;;;;;;;8.73;100.00;102290.97;4986469;28;20351;-68
2023/04/16 10:21:53;;;;;;;23.60;16.77;;;;;;;8.74;100.00;102293.66;4984556;28;20026;-68
2023/04/16 10:24:19;;;;;;;20.95;16.65;;;;;;;8.76;100.00;102297.22;4991998;28;20058;-68
2023/04/16 10:26:45;;;;;;;22.13;17.13;;;;;;;8.79;100.00;102295.63;4979635;28;20125;-68
2023/04/16 10:29:12;;;;;;;25.02;17.90;;;;;;;8.79;100.00;102291.38;4975328;28;20023;-68
2023/04/16 10:31:38;;;;;;;25.67;16.95;;;;;;;8.81;100.00;102294.03;4975822;28;20041;-68
2023/04/16 10:34:04;;;;;;;28.00;17.40;;;;;;;8.83;100.00;102298.50;4978085;28;20018;-67
2023/04/16 10:36:30;;;;;;;29.55;18.45;;;;;;;8.85;100.00;102301.22;4977765;28;20058;-68
2023/04/16 10:38:59;;;;;;;25.73;16.80;;;;;;;8.84;100.00;102305.47;4965678;28;20042;-68
2023/04/16 10:41:26;;;;;;;26.25;17.15;;;;;;;8.85;100.00;102302.06;4973500;28;20058;-68
2023/04/16 10:43:51;;;;;;;31.50;16.95;;;;;;;8.88;100.00;102301.38;4969456;28;20119;-69
2023/04/16 10:46:20;;;;;;;28.30;17.65;;;;;;;8.91;100.00;102300.66;4972119;28;20154;-69
2023/04/16 10:48:46;;;;;;;31.50;18.35;;;;;;;8.93;100.00;102309.41;4977073;28;20104;-69
2023/04/16 10:51:32;;;;;;;21.17;17.55;;;;;;;8.93;100.00;102299.06;4986304;28;20056;-69
2023/04/16 10:54:07;;;;;;;23.75;15.82;;;;;;;8.96;100.00;102307.06;4978833;28;20026;-69
2023/04/16 10:56:33;;;;;;;20.13;15.98;;;;;;;8.96;100.00;102310.50;4988134;28;20262;-69
2023/04/16 10:58:59;;;;;;;25.05;15.88;;;;;;;8.96;100.00;102309.63;4984402;28;20056;-69
2023/04/16 11:01:41;;;;;;;23.25;15.73;;;;;;;8.96;100.00;102304.47;4982241;28;20061;-69
2023/04/16 11:04:19;;;;;;;22.20;15.25;;;;;;;8.96;100.00;102299.28;4966257;28;20025;-68
2023/04/16 11:07:03;;;;;;;25.45;15.18;;;;;;;8.97;100.00;102293.31;4976321;28;20038;-69
2023/04/16 11:10:01;;;;;;;26.55;15.90;;;;;;;8.98;100.00;102301.16;4962939;28;20030;-69